createdAt,value
2016-05-16T00:00:07.834Z,1017.1
2016-05-16T00:01:10.790Z,1017.12
2016-05-16T00:02:07.746Z,1017.12
2016-05-16T00:03:07.889Z,1017.11
2016-05-16T00:04:07.626Z,1017.12
2016-05-16T00:05:10.581Z,1017.09
2016-05-16T00:06:10.538Z,1017.05
2016-05-16T00:07:07.478Z,1017.09
2016-05-16T00:08:07.434Z,1017.11
2016-05-16T00:09:07.374Z,1017.16
2016-05-16T00:10:07.314Z,1017.11
2016-05-16T00:11:07.269Z,1017.1
2016-05-16T00:12:07.225Z,1017.12
2016-05-16T00:13:07.167Z,1017.12
2016-05-16T00:14:07.106Z,1017.08
2016-05-16T00:15:10.078Z,1017.13
2016-05-16T00:16:07.002Z,1017.1
2016-05-16T00:17:06.958Z,1017.11
2016-05-16T00:18:06.898Z,1017.06
2016-05-16T00:19:09.869Z,1017.07
2016-05-16T00:20:06.997Z,1017.05
2016-05-16T00:21:06.750Z,1017.08
2016-05-16T00:22:09.705Z,1017.08
2016-05-16T00:23:06.833Z,1017.05
2016-05-16T00:24:06.602Z,1017.03
2016-05-16T00:25:09.543Z,1017.03
2016-05-16T00:26:06.482Z,1017.03
2016-05-16T00:27:09.454Z,1017.06
2016-05-16T00:28:06.597Z,1017.05
2016-05-16T00:29:06.334Z,1017.05
2016-05-16T00:30:06.290Z,1017.11
2016-05-16T00:31:06.229Z,1017.06
2016-05-16T00:32:06.187Z,1017.05
2016-05-16T00:33:06.126Z,1017.05
2016-05-16T00:34:06.082Z,1017.01
2016-05-16T00:35:09.037Z,1016.97
2016-05-16T00:36:05.978Z,1016.97
2016-05-16T00:37:05.918Z,1017.02
2016-05-16T00:38:05.889Z,1017.01
2016-05-16T00:39:05.814Z,1017
2016-05-16T00:40:05.864Z,1017.03
2016-05-16T00:41:05.711Z,1017.03
2016-05-16T00:42:08.681Z,1017.01
2016-05-16T00:43:05.606Z,1016.99
2016-05-16T00:44:05.546Z,1016.97
2016-05-16T00:45:05.502Z,1016.97
2016-05-16T00:46:05.458Z,1016.96
2016-05-16T00:47:05.398Z,1016.97
2016-05-16T00:48:05.541Z,1016.94
2016-05-16T00:49:05.294Z,1016.98
2016-05-16T00:50:05.250Z,1016.97
2016-05-16T00:51:05.190Z,1016.93
2016-05-16T00:52:05.130Z,1016.93
2016-05-16T00:53:05.102Z,1016.94
2016-05-16T00:54:05.042Z,1016.95
2016-05-16T00:55:07.998Z,1016.9
2016-05-16T00:56:07.938Z,1016.91
2016-05-16T00:57:04.879Z,1016.93
2016-05-16T00:58:04.835Z,1016.86
2016-05-16T00:59:07.976Z,1016.89
2016-05-16T01:00:04.726Z,1016.93
2016-05-16T01:01:04.667Z,1016.9
2016-05-16T01:02:04.623Z,1016.92
2016-05-16T01:03:07.582Z,1016.94
2016-05-16T01:04:04.520Z,1016.95
2016-05-16T01:05:07.462Z,1016.93
2016-05-16T01:06:04.415Z,1016.88
2016-05-16T01:07:04.355Z,1016.94
2016-05-16T01:08:04.515Z,1016.89
2016-05-16T01:09:04.486Z,1016.93
2016-05-16T01:10:04.207Z,1016.95
2016-05-16T01:11:04.164Z,1016.99
2016-05-16T01:12:04.087Z,1016.95
2016-05-16T01:13:04.044Z,1016.94
2016-05-16T01:14:07.206Z,1016.97
2016-05-16T01:15:06.958Z,1016.95
2016-05-16T01:16:06.897Z,1016.97
2016-05-16T01:17:03.835Z,1017
2016-05-16T01:18:03.791Z,1016.99
2016-05-16T01:19:06.797Z,1016.97
2016-05-16T01:20:03.688Z,1016.96
2016-05-16T01:21:06.833Z,1016.95
2016-05-16T01:22:03.568Z,1016.96
2016-05-16T01:23:06.527Z,1016.93
2016-05-16T01:24:03.464Z,1016.93
2016-05-16T01:25:03.420Z,1016.98
2016-05-16T01:26:03.375Z,1016.92
2016-05-16T01:27:03.315Z,1016.93
2016-05-16T01:28:03.256Z,1016.92
2016-05-16T01:29:03.211Z,1016.94
2016-05-16T01:30:03.152Z,1016.9
2016-05-16T01:31:03.107Z,1016.9
2016-05-16T01:32:06.063Z,1016.88
2016-05-16T01:33:03.004Z,1016.93
2016-05-16T01:34:02.944Z,1016.89
2016-05-16T01:35:02.899Z,1016.93
2016-05-16T01:36:02.839Z,1016.88
2016-05-16T01:37:02.795Z,1016.89
2016-05-16T01:38:02.737Z,1016.89
2016-05-16T01:39:05.692Z,1016.88
2016-05-16T01:40:05.647Z,1016.86
2016-05-16T01:41:02.573Z,1016.87
2016-05-16T01:42:02.731Z,1016.87
2016-05-16T01:43:02.467Z,1016.86
2016-05-16T01:44:05.440Z,1016.85
2016-05-16T01:45:02.380Z,1016.88
2016-05-16T01:46:02.319Z,1016.84
2016-05-16T01:47:05.276Z,1016.87
2016-05-16T01:48:05.216Z,1016.81
2016-05-16T01:49:02.155Z,1016.85
2016-05-16T01:50:02.425Z,1016.86
2016-05-16T01:51:02.052Z,1016.84
2016-05-16T01:52:05.038Z,1016.84
2016-05-16T01:53:02.019Z,1016.83
2016-05-16T01:54:02.031Z,1016.85
2016-05-16T01:55:04.995Z,1016.84
2016-05-16T01:56:01.992Z,1016.85
2016-05-16T01:57:01.953Z,1016.84
2016-05-16T01:58:01.923Z,1016.87
2016-05-16T01:59:04.894Z,1016.84
2016-05-16T02:00:02.052Z,1016.86
2016-05-16T02:01:01.803Z,1016.85
2016-05-16T02:02:01.766Z,1016.86
2016-05-16T02:03:04.916Z,1016.88
2016-05-16T02:04:01.674Z,1016.86
2016-05-16T02:05:01.619Z,1016.86
2016-05-16T02:06:01.580Z,1016.87
2016-05-16T02:07:04.523Z,1016.84
2016-05-16T02:08:04.481Z,1016.88
2016-05-16T02:09:01.422Z,1016.87
2016-05-16T02:10:01.381Z,1016.84
2016-05-16T02:11:01.323Z,1016.83
2016-05-16T02:12:04.280Z,1016.88
2016-05-16T02:13:01.221Z,1016.83
2016-05-16T02:14:01.161Z,1016.89
2016-05-16T02:15:01.118Z,1016.87
2016-05-16T02:16:01.059Z,1016.86
2016-05-16T02:17:01.218Z,1016.87
2016-05-16T02:18:00.954Z,1016.87
2016-05-16T02:19:03.912Z,1016.87
2016-05-16T02:20:01.023Z,1016.88
2016-05-16T02:21:00.791Z,1016.83
2016-05-16T02:22:00.748Z,1016.81
2016-05-16T02:23:00.734Z,1016.79
2016-05-16T02:24:00.642Z,1016.8
2016-05-16T02:25:00.599Z,1016.89
2016-05-16T02:26:00.539Z,1016.79
2016-05-16T02:27:00.479Z,1016.86
2016-05-16T02:28:00.435Z,1016.84
2016-05-16T02:29:00.375Z,1016.82
2016-05-16T02:30:03.331Z,1016.79
2016-05-16T02:31:03.287Z,1016.82
2016-05-16T02:32:00.211Z,1016.79
2016-05-16T02:33:00.167Z,1016.74
2016-05-16T02:34:00.122Z,1016.74
2016-05-16T02:35:00.064Z,1016.79
2016-05-16T02:36:00.019Z,1016.79
2016-05-16T02:36:59.960Z,1016.79
2016-05-16T02:37:59.915Z,1016.8
2016-05-16T02:39:02.871Z,1016.76
2016-05-16T02:39:59.811Z,1016.82
2016-05-16T02:40:59.752Z,1016.79
2016-05-16T02:42:02.707Z,1016.76
2016-05-16T02:42:59.646Z,1016.75
2016-05-16T02:43:59.587Z,1016.79
2016-05-16T02:44:59.543Z,1016.79
2016-05-16T02:46:02.499Z,1016.77
2016-05-16T02:46:59.439Z,1016.82
2016-05-16T02:47:59.380Z,1016.8
2016-05-16T02:48:59.335Z,1016.8
2016-05-16T02:49:59.276Z,1016.8
2016-05-16T02:50:59.418Z,1016.83
2016-05-16T02:51:59.171Z,1016.78
2016-05-16T02:52:59.111Z,1016.83
2016-05-16T02:53:59.068Z,1016.79
2016-05-16T02:55:02.023Z,1016.77
2016-05-16T02:55:58.964Z,1016.79
2016-05-16T02:57:01.919Z,1016.79
2016-05-16T02:58:01.859Z,1016.75
2016-05-16T02:58:58.800Z,1016.78
2016-05-16T02:59:58.756Z,1016.74
2016-05-16T03:00:58.695Z,1016.78
2016-05-16T03:02:01.667Z,1016.74
2016-05-16T03:03:01.608Z,1016.73
2016-05-16T03:03:58.547Z,1016.79
2016-05-16T03:04:58.488Z,1016.78
2016-05-16T03:06:01.458Z,1016.72
2016-05-16T03:06:58.383Z,1016.71
2016-05-16T03:07:58.527Z,1016.69
2016-05-16T03:09:01.296Z,1016.69
2016-05-16T03:10:01.235Z,1016.74
2016-05-16T03:10:58.176Z,1016.72
2016-05-16T03:11:58.116Z,1016.71
2016-05-16T03:13:01.072Z,1016.65
2016-05-16T03:14:01.027Z,1016.66
2016-05-16T03:14:57.968Z,1016.65
2016-05-16T03:15:57.907Z,1016.62
2016-05-16T03:16:57.863Z,1016.66
2016-05-16T03:17:57.804Z,1016.63
2016-05-16T03:18:57.760Z,1016.6
2016-05-16T03:19:57.700Z,1016.61
2016-05-16T03:20:57.656Z,1016.58
2016-05-16T03:22:00.596Z,1016.56
2016-05-16T03:22:57.551Z,1016.62
2016-05-16T03:23:57.492Z,1016.63
2016-05-16T03:24:57.432Z,1016.61
2016-05-16T03:25:57.388Z,1016.6
2016-05-16T03:26:57.328Z,1016.61
2016-05-16T03:27:57.284Z,1016.59
2016-05-16T03:28:57.224Z,1016.61
2016-05-16T03:29:57.180Z,1016.62
2016-05-16T03:30:57.120Z,1016.62
2016-05-16T03:31:57.076Z,1016.61
2016-05-16T03:33:00.031Z,1016.62
2016-05-16T03:33:56.972Z,1016.64
2016-05-16T03:34:56.912Z,1016.62
2016-05-16T03:35:56.852Z,1016.61
2016-05-16T03:36:59.824Z,1016.62
2016-05-16T03:37:59.764Z,1016.6
2016-05-16T03:38:56.688Z,1016.62
2016-05-16T03:39:59.660Z,1016.59
2016-05-16T03:40:59.616Z,1016.61
2016-05-16T03:41:56.555Z,1016.64
2016-05-16T03:42:56.496Z,1016.65
2016-05-16T03:43:59.436Z,1016.63
2016-05-16T03:44:56.393Z,1016.64
2016-05-16T03:45:59.348Z,1016.62
2016-05-16T03:46:56.288Z,1016.63
2016-05-16T03:47:59.229Z,1016.63
2016-05-16T03:48:59.184Z,1016.64
2016-05-16T03:49:56.124Z,1016.68
2016-05-16T03:50:56.065Z,1016.73
2016-05-16T03:51:56.020Z,1016.71
2016-05-16T03:52:55.976Z,1016.7
2016-05-16T03:53:55.917Z,1016.71
2016-05-16T03:54:55.872Z,1016.74
2016-05-16T03:55:58.812Z,1016.69
2016-05-16T03:56:55.753Z,1016.73
2016-05-16T03:57:55.709Z,1016.71
2016-05-16T03:58:55.648Z,1016.71
2016-05-16T03:59:58.604Z,1016.74
2016-05-16T04:00:55.544Z,1016.74
2016-05-16T04:01:55.484Z,1016.68
2016-05-16T04:02:55.441Z,1016.67
2016-05-16T04:03:55.381Z,1016.73
2016-05-16T04:04:55.336Z,1016.74
2016-05-16T04:05:55.277Z,1016.74
2016-05-16T04:06:55.233Z,1016.72
2016-05-16T04:07:58.189Z,1016.71
2016-05-16T04:08:55.128Z,1016.73
2016-05-16T04:09:55.085Z,1016.72
2016-05-16T04:10:55.024Z,1016.75
2016-05-16T04:11:54.965Z,1016.73
2016-05-16T04:12:54.921Z,1016.7
2016-05-16T04:13:54.876Z,1016.7
2016-05-16T04:14:54.816Z,1016.71
2016-05-16T04:15:54.757Z,1016.69
2016-05-16T04:16:54.713Z,1016.73
2016-05-16T04:17:54.652Z,1016.75
2016-05-16T04:19:03.624Z,1016.74
2016-05-16T04:19:54.954Z,1016.68
2016-05-16T04:20:54.489Z,1016.72
2016-05-16T04:21:54.648Z,1016.71
2016-05-16T04:22:57.401Z,1016.71
2016-05-16T04:23:57.403Z,1016.68
2016-05-16T04:24:54.281Z,1016.65
2016-05-16T04:25:54.237Z,1016.68
2016-05-16T04:26:57.192Z,1016.64
2016-05-16T04:27:57.148Z,1016.69
2016-05-16T04:28:54.073Z,1016.71
2016-05-16T04:29:54.029Z,1016.71
2016-05-16T04:30:53.969Z,1016.72
2016-05-16T04:31:53.909Z,1016.71
2016-05-16T04:32:53.864Z,1016.72
2016-05-16T04:33:53.805Z,1016.74
2016-05-16T04:34:56.777Z,1016.71
2016-05-16T04:35:53.701Z,1016.68
2016-05-16T04:36:53.657Z,1016.68
2016-05-16T04:37:53.597Z,1016.68
2016-05-16T04:38:53.553Z,1016.68
2016-05-16T04:39:56.509Z,1016.7
2016-05-16T04:40:53.449Z,1016.66
2016-05-16T04:41:53.592Z,1016.67
2016-05-16T04:42:56.361Z,1016.72
2016-05-16T04:43:53.285Z,1016.68
2016-05-16T04:44:53.225Z,1016.73
2016-05-16T04:45:53.181Z,1016.69
2016-05-16T04:46:56.137Z,1016.65
2016-05-16T04:47:53.280Z,1016.68
2016-05-16T04:48:53.018Z,1016.66
2016-05-16T04:49:52.973Z,1016.69
2016-05-16T04:50:53.241Z,1016.67
2016-05-16T04:51:55.884Z,1016.63
2016-05-16T04:52:52.826Z,1016.63
2016-05-16T04:53:52.765Z,1016.68
2016-05-16T04:54:55.706Z,1016.69
2016-05-16T04:55:52.661Z,1016.67
2016-05-16T04:56:52.617Z,1016.71
2016-05-16T04:57:52.542Z,1016.69
2016-05-16T04:58:55.497Z,1016.71
2016-05-16T04:59:52.453Z,1016.67
2016-05-16T05:00:52.393Z,1016.67
2016-05-16T05:01:52.396Z,1016.67
2016-05-16T05:02:52.289Z,1016.66
2016-05-16T05:03:52.230Z,1016.66
2016-05-16T05:04:52.185Z,1016.68
2016-05-16T05:05:55.125Z,1016.67
2016-05-16T05:06:52.081Z,1016.7
2016-05-16T05:07:52.022Z,1016.68
2016-05-16T05:08:51.961Z,1016.74
2016-05-16T05:09:51.917Z,1016.73
2016-05-16T05:10:51.858Z,1016.72
2016-05-16T05:11:51.813Z,1016.7
2016-05-16T05:12:54.785Z,1016.75
2016-05-16T05:13:51.913Z,1016.69
2016-05-16T05:14:51.650Z,1016.71
2016-05-16T05:15:51.606Z,1016.69
2016-05-16T05:16:51.546Z,1016.72
2016-05-16T05:17:54.501Z,1016.68
2016-05-16T05:18:51.441Z,1016.7
2016-05-16T05:19:51.398Z,1016.68
2016-05-16T05:20:54.338Z,1016.67
2016-05-16T05:21:54.309Z,1016.68
2016-05-16T05:22:51.249Z,1016.66
2016-05-16T05:23:51.189Z,1016.66
2016-05-16T05:24:51.130Z,1016.65
2016-05-16T05:25:54.304Z,1016.66
2016-05-16T05:26:51.229Z,1016.7
2016-05-16T05:27:50.981Z,1016.67
2016-05-16T05:28:53.922Z,1016.69
2016-05-16T05:29:53.878Z,1016.67
2016-05-16T05:30:50.817Z,1016.69
2016-05-16T05:31:50.789Z,1016.76
2016-05-16T05:32:53.729Z,1016.79
2016-05-16T05:33:53.670Z,1016.74
2016-05-16T05:34:50.610Z,1016.78
2016-05-16T05:35:50.550Z,1016.75
2016-05-16T05:36:50.505Z,1016.76
2016-05-16T05:37:53.462Z,1016.79
2016-05-16T05:38:50.402Z,1016.81
2016-05-16T05:39:50.342Z,1016.79
2016-05-16T05:40:50.297Z,1016.84
2016-05-16T05:41:50.253Z,1016.8
2016-05-16T05:42:53.193Z,1016.86
2016-05-16T05:43:50.134Z,1016.86
2016-05-16T05:44:50.105Z,1016.88
2016-05-16T05:45:50.046Z,1016.85
2016-05-16T05:46:49.985Z,1016.85
2016-05-16T05:47:49.927Z,1016.9
2016-05-16T05:48:52.943Z,1016.86
2016-05-16T05:49:52.838Z,1016.85
2016-05-16T05:50:50.184Z,1016.89
2016-05-16T05:51:49.718Z,1016.88
2016-05-16T05:52:49.673Z,1016.93
2016-05-16T05:53:49.615Z,1016.92
2016-05-16T05:54:49.570Z,1016.95
2016-05-16T05:55:49.541Z,1016.92
2016-05-16T05:56:49.466Z,1016.9
2016-05-16T05:57:49.406Z,1016.92
2016-05-16T05:58:49.362Z,1016.89
2016-05-16T05:59:49.301Z,1016.91
2016-05-16T06:00:49.258Z,1016.89
2016-05-16T06:01:49.198Z,1016.89
2016-05-16T06:02:49.154Z,1016.92
2016-05-16T06:03:49.094Z,1016.97
2016-05-16T06:04:52.050Z,1016.96
2016-05-16T06:05:52.475Z,1016.99
2016-05-16T06:06:48.930Z,1016.95
2016-05-16T06:07:48.886Z,1016.94
2016-05-16T06:08:48.826Z,1016.92
2016-05-16T06:09:48.797Z,1016.9
2016-05-16T06:10:48.738Z,1016.93
2016-05-16T06:11:48.677Z,1016.94
2016-05-16T06:12:51.634Z,1016.93
2016-05-16T06:13:48.574Z,1016.94
2016-05-16T06:14:51.530Z,1016.91
2016-05-16T06:15:48.469Z,1016.94
2016-05-16T06:16:48.426Z,1017
2016-05-16T06:17:48.365Z,1016.97
2016-05-16T06:18:57.321Z,1016.96
2016-05-16T06:19:48.263Z,1017.01
2016-05-16T06:20:48.780Z,1017.01
2016-05-16T06:21:51.174Z,1016.96
2016-05-16T06:22:51.113Z,1016.97
2016-05-16T06:23:48.054Z,1017.01
2016-05-16T06:24:47.994Z,1016.98
2016-05-16T06:25:50.950Z,1017.01
2016-05-16T06:26:47.906Z,1017.05
2016-05-16T06:27:47.846Z,1017.03
2016-05-16T06:28:47.786Z,1017.03
2016-05-16T06:29:50.773Z,1017.14
2016-05-16T06:30:47.698Z,1017.07
2016-05-16T06:31:47.653Z,1017.07
2016-05-16T06:32:47.579Z,1017.08
2016-05-16T06:33:50.533Z,1017.12
2016-05-16T06:34:50.490Z,1017.08
2016-05-16T06:35:47.431Z,1017.09
2016-05-16T06:36:47.386Z,1017.16
2016-05-16T06:37:50.342Z,1017.1
2016-05-16T06:38:50.281Z,1017.11
2016-05-16T06:39:47.222Z,1017.1
2016-05-16T06:40:47.178Z,1017.08
2016-05-16T06:41:47.134Z,1017.12
2016-05-16T06:42:50.074Z,1017.1
2016-05-16T06:43:47.014Z,1017.14
2016-05-16T06:44:47.001Z,1017.11
2016-05-16T06:45:46.910Z,1017.11
2016-05-16T06:46:46.866Z,1017.1
2016-05-16T06:47:46.806Z,1017.13
2016-05-16T06:48:46.763Z,1017.14
2016-05-16T06:49:49.702Z,1017.17
2016-05-16T06:50:46.674Z,1017.15
2016-05-16T06:51:46.599Z,1017.19
2016-05-16T06:52:46.554Z,1017.2
2016-05-16T06:53:46.494Z,1017.22
2016-05-16T06:54:46.449Z,1017.21
2016-05-16T06:55:46.421Z,1017.23
2016-05-16T06:56:46.346Z,1017.22
2016-05-16T06:57:46.287Z,1017.17
2016-05-16T06:58:46.242Z,1017.23
2016-05-16T06:59:46.198Z,1017.21
2016-05-16T07:00:46.137Z,1017.2
2016-05-16T07:01:46.093Z,1017.18
2016-05-16T07:02:49.253Z,1017.17
2016-05-16T07:03:48.989Z,1017.2
2016-05-16T07:04:45.931Z,1017.18
2016-05-16T07:05:45.870Z,1017.2
2016-05-16T07:06:45.825Z,1017.22
2016-05-16T07:07:45.767Z,1017.25
2016-05-16T07:08:48.737Z,1017.25
2016-05-16T07:09:45.662Z,1017.22
2016-05-16T07:10:45.821Z,1017.25
2016-05-16T07:11:48.574Z,1017.29
2016-05-16T07:12:45.514Z,1017.28
2016-05-16T07:13:45.470Z,1017.32
2016-05-16T07:14:45.410Z,1017.28
2016-05-16T07:15:45.366Z,1017.31
2016-05-16T07:16:48.322Z,1017.29
2016-05-16T07:17:45.261Z,1017.3
2016-05-16T07:18:45.202Z,1017.34
2016-05-16T07:19:45.157Z,1017.27
2016-05-16T07:20:48.113Z,1017.31
2016-05-16T07:21:48.069Z,1017.29
2016-05-16T07:22:45.010Z,1017.29
2016-05-16T07:23:44.950Z,1017.22
2016-05-16T07:24:44.905Z,1017.27
2016-05-16T07:25:44.846Z,1017.22
2016-05-16T07:26:44.801Z,1017.29
2016-05-16T07:27:44.960Z,1017.26
2016-05-16T07:28:44.713Z,1017.24
2016-05-16T07:29:44.637Z,1017.22
2016-05-16T07:30:44.594Z,1017.24
2016-05-16T07:31:44.549Z,1017.22
2016-05-16T07:32:44.505Z,1017.27
2016-05-16T07:33:44.429Z,1017.21
2016-05-16T07:34:44.401Z,1017.23
2016-05-16T07:35:44.357Z,1017.24
2016-05-16T07:36:44.297Z,1017.19
2016-05-16T07:37:44.237Z,1017.21
2016-05-16T07:38:44.193Z,1017.19
2016-05-16T07:39:47.150Z,1017.19
2016-05-16T07:40:44.074Z,1017.2
2016-05-16T07:41:44.232Z,1017.11
2016-05-16T07:42:43.986Z,1017.11
2016-05-16T07:43:43.925Z,1017.07
2016-05-16T07:44:43.881Z,1017.15
2016-05-16T07:45:43.821Z,1017.1
2016-05-16T07:46:46.777Z,1017.13
2016-05-16T07:47:43.716Z,1017.15
2016-05-16T07:48:43.673Z,1017.13
2016-05-16T07:49:43.630Z,1017.13
2016-05-16T07:50:43.569Z,1017.07
2016-05-16T07:51:46.525Z,1017.1
2016-05-16T07:52:43.465Z,1017.11
2016-05-16T07:53:43.499Z,1017.14
2016-05-16T07:54:43.361Z,1017.11
2016-05-16T07:55:43.317Z,1017.13
2016-05-16T07:56:43.257Z,1017.14
2016-05-16T07:57:43.212Z,1017.15
2016-05-16T07:58:43.169Z,1017.13
2016-05-16T07:59:43.313Z,1017.13
2016-05-16T08:00:43.049Z,1017.16
2016-05-16T08:01:43.209Z,1017.16
2016-05-16T08:02:42.961Z,1017.18
2016-05-16T08:03:42.901Z,1017.15
2016-05-16T08:04:42.856Z,1017.16
2016-05-16T08:05:42.828Z,1017.2
2016-05-16T08:06:45.753Z,1017.13
2016-05-16T08:07:42.709Z,1017.14
2016-05-16T08:08:42.648Z,1017.14
2016-05-16T08:09:42.605Z,1017.15
2016-05-16T08:10:45.561Z,1017.19
2016-05-16T08:11:42.500Z,1017.17
2016-05-16T08:12:42.659Z,1017.15
2016-05-16T08:13:42.411Z,1017.11
2016-05-16T08:14:42.384Z,1017.12
2016-05-16T08:15:42.309Z,1017.14
2016-05-16T08:16:42.249Z,1017.09
2016-05-16T08:17:42.205Z,1017.16
2016-05-16T08:18:42.363Z,1017.16
2016-05-16T08:19:42.100Z,1017.16
2016-05-16T08:20:42.041Z,1017.17
2016-05-16T08:21:41.996Z,1017.1
2016-05-16T08:22:51.061Z,1017.1
2016-05-16T08:23:41.908Z,1017.16
2016-05-16T08:24:41.849Z,1017.14
2016-05-16T08:25:41.804Z,1017.14
2016-05-16T08:26:41.744Z,1017.14
2016-05-16T08:27:41.699Z,1017.11
2016-05-16T08:28:44.640Z,1017.11
2016-05-16T08:29:41.595Z,1017.11
2016-05-16T08:30:44.551Z,1017.11
2016-05-16T08:31:41.493Z,1017.13
2016-05-16T08:32:41.432Z,1017.1
2016-05-16T08:33:41.388Z,1017.09
2016-05-16T08:34:41.343Z,1017.14
2016-05-16T08:35:41.440Z,1017.12
2016-05-16T08:36:41.240Z,1017.17
2016-05-16T08:37:41.180Z,1017.15
2016-05-16T08:38:44.354Z,1017.18
2016-05-16T08:39:41.076Z,1017.19
2016-05-16T08:40:41.047Z,1017.13
2016-05-16T08:41:40.987Z,1017.18
2016-05-16T08:42:40.944Z,1017.15
2016-05-16T08:43:40.883Z,1017.13
2016-05-16T08:44:40.840Z,1017.16
2016-05-16T08:45:40.779Z,1017.13
2016-05-16T08:46:40.782Z,1017.17
2016-05-16T08:47:40.692Z,1017.17
2016-05-16T08:48:40.631Z,1017.11
2016-05-16T08:49:40.588Z,1017.12
2016-05-16T08:50:40.527Z,1017.1
2016-05-16T08:51:40.483Z,1017.09
2016-05-16T08:52:40.705Z,1017.12
2016-05-16T08:53:40.379Z,1017.03
2016-05-16T08:54:43.335Z,1017.08
2016-05-16T08:55:40.275Z,1017.13
2016-05-16T08:56:40.232Z,1017.05
2016-05-16T08:57:43.187Z,1017
2016-05-16T08:58:40.127Z,1017.07
2016-05-16T08:59:40.082Z,1017.05
2016-05-16T09:00:40.023Z,1017.06
2016-05-16T09:01:39.978Z,1017.01
2016-05-16T09:02:39.918Z,1017
2016-05-16T09:03:40.079Z,1017.01
2016-05-16T09:04:42.831Z,1017.01
2016-05-16T09:05:40.146Z,1017
2016-05-16T09:06:39.726Z,1016.95
2016-05-16T09:07:39.667Z,1016.98
2016-05-16T09:08:39.623Z,1016.96
2016-05-16T09:09:39.562Z,1016.97
2016-05-16T09:10:39.519Z,1017
2016-05-16T09:11:39.475Z,1016.99
2016-05-16T09:12:39.431Z,1016.99
2016-05-16T09:13:39.370Z,1017.02
2016-05-16T09:14:42.326Z,1016.91
2016-05-16T09:15:39.282Z,1016.91
2016-05-16T09:16:39.222Z,1017.01
2016-05-16T09:17:39.177Z,1016.99
2016-05-16T09:18:42.133Z,1016.98
2016-05-16T09:19:39.075Z,1016.93
2016-05-16T09:20:39.030Z,1016.98
2016-05-16T09:21:38.986Z,1016.93
2016-05-16T09:22:38.941Z,1017
2016-05-16T09:23:38.882Z,1016.93
2016-05-16T09:24:38.838Z,1016.94
2016-05-16T09:25:38.794Z,1016.96
2016-05-16T09:26:38.733Z,1016.97
2016-05-16T09:27:38.690Z,1017
2016-05-16T09:28:38.646Z,1017.03
2016-05-16T09:29:38.788Z,1017
2016-05-16T09:30:41.541Z,1016.98
2016-05-16T09:31:38.684Z,1016.95
2016-05-16T09:32:38.437Z,1017.02
2016-05-16T09:33:38.393Z,1017.09
2016-05-16T09:34:38.537Z,1016.99
2016-05-16T09:35:38.290Z,1016.96
2016-05-16T09:36:38.245Z,1016.95
2016-05-16T09:37:38.185Z,1017.04
2016-05-16T09:38:38.140Z,1016.99
2016-05-16T09:39:38.081Z,1017
2016-05-16T09:40:38.037Z,1016.93
2016-05-16T09:41:37.992Z,1016.94
2016-05-16T09:42:37.933Z,1016.94
2016-05-16T09:43:37.889Z,1016.91
2016-05-16T09:44:37.829Z,1017.01
2016-05-16T09:45:37.784Z,1017.03
2016-05-16T09:46:37.741Z,1016.98
2016-05-16T09:47:37.680Z,1016.94
2016-05-16T09:48:37.636Z,1016.93
2016-05-16T09:49:37.592Z,1016.93
2016-05-16T09:50:37.547Z,1016.9
2016-05-16T09:51:37.692Z,1016.89
2016-05-16T09:52:37.444Z,1016.96
2016-05-16T09:53:37.400Z,1016.95
2016-05-16T09:54:37.340Z,1016.99
2016-05-16T09:55:37.296Z,1016.98
2016-05-16T09:56:40.268Z,1016.95
2016-05-16T09:57:37.192Z,1016.93
2016-05-16T09:58:37.149Z,1016.95
2016-05-16T09:59:37.088Z,1016.93
2016-05-16T10:00:37.247Z,1016.92
2016-05-16T10:01:36.999Z,1016.88
2016-05-16T10:02:39.955Z,1016.99
2016-05-16T10:03:36.942Z,1016.94
2016-05-16T10:04:36.851Z,1017.03
2016-05-16T10:05:36.838Z,1016.88
2016-05-16T10:06:36.748Z,1016.96
2016-05-16T10:07:39.704Z,1016.93
2016-05-16T10:08:36.659Z,1016.92
2016-05-16T10:09:36.803Z,1016.92
2016-05-16T10:10:36.555Z,1017.02
2016-05-16T10:11:36.511Z,1016.91
2016-05-16T10:12:36.451Z,1016.92
2016-05-16T10:13:36.407Z,1016.91
2016-05-16T10:14:37.410Z,1016.94
2016-05-16T10:15:36.334Z,1016.93
2016-05-16T10:16:36.259Z,1016.96
2016-05-16T10:17:36.199Z,1016.96
2016-05-16T10:18:39.155Z,1016.9
2016-05-16T10:19:39.110Z,1016.87
2016-05-16T10:20:36.051Z,1016.84
2016-05-16T10:21:36.006Z,1016.79
2016-05-16T10:22:35.947Z,1016.8
2016-05-16T10:23:35.903Z,1016.75
2016-05-16T10:24:38.858Z,1016.75
2016-05-16T10:25:35.799Z,1016.79
2016-05-16T10:26:35.754Z,1016.8
2016-05-16T10:27:35.694Z,1016.82
2016-05-16T10:28:38.650Z,1016.83
2016-05-16T10:29:35.810Z,1016.83
2016-05-16T10:30:35.547Z,1016.82
2016-05-16T10:31:35.502Z,1016.75
2016-05-16T10:32:35.443Z,1016.76
2016-05-16T10:33:38.413Z,1016.75
2016-05-16T10:34:38.354Z,1016.76
2016-05-16T10:35:35.293Z,1016.72
2016-05-16T10:36:35.251Z,1016.77
2016-05-16T10:37:35.190Z,1016.8
2016-05-16T10:38:38.161Z,1016.78
2016-05-16T10:39:38.102Z,1016.82
2016-05-16T10:40:38.058Z,1016.81
2016-05-16T10:41:43.998Z,1016.76
2016-05-16T10:42:34.954Z,1016.8
2016-05-16T10:43:34.894Z,1016.77
2016-05-16T10:44:37.865Z,1016.78
2016-05-16T10:45:34.805Z,1016.8
2016-05-16T10:46:37.948Z,1016.75
2016-05-16T10:47:34.701Z,1016.72
2016-05-16T10:48:34.658Z,1016.79
2016-05-16T10:49:37.597Z,1016.77
2016-05-16T10:50:34.819Z,1016.82
2016-05-16T10:51:34.493Z,1016.83
2016-05-16T10:52:37.465Z,1016.8
2016-05-16T10:53:34.405Z,1016.78
2016-05-16T10:54:34.361Z,1016.74
2016-05-16T10:55:34.317Z,1016.74
2016-05-16T10:56:34.257Z,1016.76
2016-05-16T10:57:34.253Z,1016.78
2016-05-16T10:58:34.240Z,1016.75
2016-05-16T10:59:34.242Z,1016.74
2016-05-16T11:00:34.246Z,1016.74
2016-05-16T11:01:34.248Z,1016.75
2016-05-16T11:02:34.209Z,1016.75
2016-05-16T11:03:34.182Z,1016.79
2016-05-16T11:04:34.139Z,1016.79
2016-05-16T11:05:35.081Z,1016.78
2016-05-16T11:06:37.085Z,1016.78
2016-05-16T11:07:34.047Z,1016.8
2016-05-16T11:08:34.197Z,1016.78
2016-05-16T11:09:33.955Z,1016.79
2016-05-16T11:10:33.917Z,1016.77
2016-05-16T11:11:33.879Z,1016.8
2016-05-16T11:12:33.822Z,1016.79
2016-05-16T11:13:36.763Z,1016.84
2016-05-16T11:14:33.738Z,1016.75
2016-05-16T11:15:33.679Z,1016.7
2016-05-16T11:16:33.623Z,1016.71
2016-05-16T11:17:36.579Z,1016.76
2016-05-16T11:18:33.535Z,1016.77
2016-05-16T11:19:33.493Z,1016.82
2016-05-16T11:20:33.448Z,1016.79
2016-05-16T11:21:33.390Z,1016.77
2016-05-16T11:22:33.331Z,1016.72
2016-05-16T11:23:33.302Z,1016.68
2016-05-16T11:24:36.244Z,1016.64
2016-05-16T11:25:36.199Z,1016.64
2016-05-16T11:26:33.217Z,1016.69
2016-05-16T11:27:33.095Z,1016.67
2016-05-16T11:28:33.051Z,1016.65
2016-05-16T11:29:33.007Z,1016.62
2016-05-16T11:30:32.948Z,1016.59
2016-05-16T11:31:32.903Z,1016.63
2016-05-16T11:32:32.844Z,1016.61
2016-05-16T11:33:32.800Z,1016.57
2016-05-16T11:34:32.755Z,1016.59
2016-05-16T11:35:35.727Z,1016.58
2016-05-16T11:36:35.666Z,1016.61
2016-05-16T11:37:35.825Z,1016.64
2016-05-16T11:38:32.563Z,1016.69
2016-05-16T11:39:32.503Z,1016.64
2016-05-16T11:40:32.458Z,1016.66
2016-05-16T11:41:32.415Z,1016.57
2016-05-16T11:42:32.370Z,1016.57
2016-05-16T11:43:32.310Z,1016.61
2016-05-16T11:44:32.266Z,1016.57
2016-05-16T11:45:32.221Z,1016.57
2016-05-16T11:46:32.179Z,1016.52
2016-05-16T11:47:32.118Z,1016.58
2016-05-16T11:48:32.074Z,1016.54
2016-05-16T11:49:32.030Z,1016.59
2016-05-16T11:50:31.970Z,1016.55
2016-05-16T11:51:31.926Z,1016.52
2016-05-16T11:52:31.881Z,1016.6
2016-05-16T11:53:31.822Z,1016.47
2016-05-16T11:54:34.793Z,1016.53
2016-05-16T11:55:31.734Z,1016.46
2016-05-16T11:56:31.689Z,1016.51
2016-05-16T11:57:31.645Z,1016.47
2016-05-16T11:58:31.585Z,1016.45
2016-05-16T11:59:31.526Z,1016.45
2016-05-16T12:00:34.497Z,1016.49
2016-05-16T12:01:34.453Z,1016.49
2016-05-16T12:02:31.393Z,1016.57
2016-05-16T12:03:31.349Z,1016.45
2016-05-16T12:04:31.289Z,1016.55
2016-05-16T12:05:31.291Z,1016.49
2016-05-16T12:06:31.200Z,1016.5
2016-05-16T12:07:31.141Z,1016.55